sensor_id;sensor_type;location;lat;lon;timestamp;P1;durP1;ratioP1;P2;durP2;ratioP2
6955;SDS011;50345;51.136;16.886;2022-07-05T00:00:43;5.63;;;5.23;;
6955;SDS011;50345;51.136;16.886;2022-07-05T00:03:09;6.20;;;5.70;;
6955;SDS011;50345;51.136;16.886;2022-07-05T00:05:35;5.50;;;5.03;;
6955;SDS011;50345;51.136;16.886;2022-07-05T00:08:02;5.53;;;5.03;;
6955;SDS011;50345;51.136;16.886;2022-07-05T00:10:28;5.43;;;5.03;;
6955;SDS011;50345;51.136;16.886;2022-07-05T00:12:53;9.03;;;5.63;;
6955;SDS011;50345;51.136;16.886;2022-07-05T00:15:19;6.50;;;6.00;;
6955;SDS011;50345;51.136;16.886;2022-07-05T00:17:45;5.10;;;4.80;;
6955;SDS011;50345;51.136;16.886;2022-07-05T00:20:10;6.57;;;5.53;;
6955;SDS011;50345;51.136;16.886;2022-07-05T00:22:36;6.90;;;6.30;;
6955;SDS011;50345;51.136;16.886;2022-07-05T00:25:02;8.90;;;6.10;;
6955;SDS011;50345;51.136;16.886;2022-07-05T00:27:28;5.50;;;5.10;;
6955;SDS011;50345;51.136;16.886;2022-07-05T00:29:53;7.77;;;6.70;;
6955;SDS011;50345;51.136;16.886;2022-07-05T00:32:19;5.60;;;5.20;;
6955;SDS011;50345;51.136;16.886;2022-07-05T00:34:45;5.23;;;4.90;;
6955;SDS011;50345;51.136;16.886;2022-07-05T00:37:10;6.07;;;5.47;;
6955;SDS011;50345;51.136;16.886;2022-07-05T00:39:37;8.63;;;5.27;;
6955;SDS011;50345;51.136;16.886;2022-07-05T00:42:02;6.13;;;5.07;;
6955;SDS011;50345;51.136;16.886;2022-07-05T00:44:36;5.47;;;4.97;;
6955;SDS011;50345;51.136;16.886;2022-07-05T00:47:03;6.50;;;5.50;;
6955;SDS011;50345;51.136;16.886;2022-07-05T00:49:30;8.23;;;5.33;;
6955;SDS011;50345;51.136;16.886;2022-07-05T00:51:56;5.90;;;5.37;;
6955;SDS011;50345;51.136;16.886;2022-07-05T00:54:23;4.80;;;4.60;;
6955;SDS011;50345;51.136;16.886;2022-07-05T00:56:49;5.40;;;4.90;;
6955;SDS011;50345;51.136;16.886;2022-07-05T00:59:16;6.07;;;5.57;;
6955;SDS011;50345;51.136;16.886;2022-07-05T01:01:42;5.83;;;5.33;;
6955;SDS011;50345;51.136;16.886;2022-07-05T01:04:07;5.27;;;4.97;;
6955;SDS011;50345;51.136;16.886;2022-07-05T01:06:33;5.73;;;5.23;;
6955;SDS011;50345;51.136;16.886;2022-07-05T01:08:58;8.20;;;5.47;;
6955;SDS011;50345;51.136;16.886;2022-07-05T01:11:24;5.70;;;5.20;;
6955;SDS011;50345;51.136;16.886;2022-07-05T01:13:50;5.97;;;5.47;;
6955;SDS011;50345;51.136;16.886;2022-07-05T01:16:16;5.50;;;5.10;;
6955;SDS011;50345;51.136;16.886;2022-07-05T01:18:42;6.13;;;5.73;;
6955;SDS011;50345;51.136;16.886;2022-07-05T01:21:09;5.67;;;5.27;;
6955;SDS011;50345;51.136;16.886;2022-07-05T01:23:38;5.10;;;4.23;;
6955;SDS011;50345;51.136;16.886;2022-07-05T01:26:04;4.83;;;4.50;;
6955;SDS011;50345;51.136;16.886;2022-07-05T01:28:32;4.70;;;4.40;;
6955;SDS011;50345;51.136;16.886;2022-07-05T01:31:00;6.40;;;4.97;;
6955;SDS011;50345;51.136;16.886;2022-07-05T01:33:27;4.53;;;4.13;;
6955;SDS011;50345;51.136;16.886;2022-07-05T01:35:56;4.77;;;4.37;;
6955;SDS011;50345;51.136;16.886;2022-07-05T01:38:22;7.03;;;4.90;;
6955;SDS011;50345;51.136;16.886;2022-07-05T01:40:49;5.10;;;4.63;;
6955;SDS011;50345;51.136;16.886;2022-07-05T01:43:17;5.00;;;4.70;;
6955;SDS011;50345;51.136;16.886;2022-07-05T01:45:45;5.30;;;4.30;;
6955;SDS011;50345;51.136;16.886;2022-07-05T01:48:12;6.90;;;5.00;;
6955;SDS011;50345;51.136;16.886;2022-07-05T01:50:41;5.30;;;4.73;;
6955;SDS011;50345;51.136;16.886;2022-07-05T01:53:15;4.90;;;4.60;;
6955;SDS011;50345;51.136;16.886;2022-07-05T01:55:47;5.27;;;4.87;;
6955;SDS011;50345;51.136;16.886;2022-07-05T01:58:13;5.40;;;5.00;;
6955;SDS011;50345;51.136;16.886;2022-07-05T02:03:09;5.23;;;4.17;;
6955;SDS011;50345;51.136;16.886;2022-07-05T02:05:35;5.50;;;5.10;;
6955;SDS011;50345;51.136;16.886;2022-07-05T02:08:01;4.97;;;4.30;;
6955;SDS011;50345;51.136;16.886;2022-07-05T02:10:27;4.87;;;4.57;;
6955;SDS011;50345;51.136;16.886;2022-07-05T02:12:52;6.63;;;4.33;;
6955;SDS011;50345;51.136;16.886;2022-07-05T02:15:18;4.93;;;4.53;;
6955;SDS011;50345;51.136;16.886;2022-07-05T02:17:43;6.00;;;5.43;;
6955;SDS011;50345;51.136;16.886;2022-07-05T02:20:09;4.77;;;4.47;;
6955;SDS011;50345;51.136;16.886;2022-07-05T02:22:35;4.33;;;4.00;;
6955;SDS011;50345;51.136;16.886;2022-07-05T02:25:00;4.60;;;4.30;;
6955;SDS011;50345;51.136;16.886;2022-07-05T02:27:26;4.40;;;4.17;;
6955;SDS011;50345;51.136;16.886;2022-07-05T02:29:52;5.17;;;4.73;;
6955;SDS011;50345;51.136;16.886;2022-07-05T02:32:17;6.33;;;5.20;;
6955;SDS011;50345;51.136;16.886;2022-07-05T02:34:43;6.10;;;5.47;;
6955;SDS011;50345;51.136;16.886;2022-07-05T02:37:08;8.60;;;5.30;;
6955;SDS011;50345;51.136;16.886;2022-07-05T02:39:34;4.50;;;4.20;;
6955;SDS011;50345;51.136;16.886;2022-07-05T02:41:59;4.80;;;4.40;;
6955;SDS011;50345;51.136;16.886;2022-07-05T02:44:25;5.07;;;4.77;;
6955;SDS011;50345;51.136;16.886;2022-07-05T02:46:51;8.40;;;4.63;;
6955;SDS011;50345;51.136;16.886;2022-07-05T02:49:17;6.53;;;4.70;;
6955;SDS011;50345;51.136;16.886;2022-07-05T02:51:42;4.43;;;4.17;;
6955;SDS011;50345;51.136;16.886;2022-07-05T02:54:08;5.60;;;5.10;;
6955;SDS011;50345;51.136;16.886;2022-07-05T02:56:33;6.77;;;4.87;;
6955;SDS011;50345;51.136;16.886;2022-07-05T02:58:59;4.70;;;4.40;;
6955;SDS011;50345;51.136;16.886;2022-07-05T03:01:25;4.77;;;4.37;;
6955;SDS011;50345;51.136;16.886;2022-07-05T03:03:50;4.70;;;4.40;;
6955;SDS011;50345;51.136;16.886;2022-07-05T03:06:16;5.37;;;4.93;;
6955;SDS011;50345;51.136;16.886;2022-07-05T03:08:41;5.17;;;4.87;;
6955;SDS011;50345;51.136;16.886;2022-07-05T03:11:07;5.13;;;4.67;;
6955;SDS011;50345;51.136;16.886;2022-07-05T03:13:32;5.07;;;4.53;;
6955;SDS011;50345;51.136;16.886;2022-07-05T03:15:58;5.00;;;4.70;;
6955;SDS011;50345;51.136;16.886;2022-07-05T03:18:24;5.47;;;4.83;;
6955;SDS011;50345;51.136;16.886;2022-07-05T03:20:49;4.80;;;4.40;;
6955;SDS011;50345;51.136;16.886;2022-07-05T03:23:15;4.13;;;3.80;;
6955;SDS011;50345;51.136;16.886;2022-07-05T03:25:40;3.90;;;3.37;;
6955;SDS011;50345;51.136;16.886;2022-07-05T03:28:06;5.93;;;5.07;;
6955;SDS011;50345;51.136;16.886;2022-07-05T03:30:31;6.60;;;4.60;;
6955;SDS011;50345;51.136;16.886;2022-07-05T03:32:57;4.57;;;4.27;;
6955;SDS011;50345;51.136;16.886;2022-07-05T03:35:22;5.97;;;4.57;;
6955;SDS011;50345;51.136;16.886;2022-07-05T03:37:48;5.40;;;5.00;;
6955;SDS011;50345;51.136;16.886;2022-07-05T03:40:13;8.43;;;4.43;;
6955;SDS011;50345;51.136;16.886;2022-07-05T03:42:39;5.13;;;4.73;;
6955;SDS011;50345;51.136;16.886;2022-07-05T03:45:05;5.17;;;4.67;;
6955;SDS011;50345;51.136;16.886;2022-07-05T03:47:31;8.03;;;4.67;;
6955;SDS011;50345;51.136;16.886;2022-07-05T03:49:56;6.60;;;4.60;;
6955;SDS011;50345;51.136;16.886;2022-07-05T03:52:22;5.97;;;4.70;;
6955;SDS011;50345;51.136;16.886;2022-07-05T03:54:47;4.90;;;4.60;;
6955;SDS011;50345;51.136;16.886;2022-07-05T03:57:13;5.17;;;4.67;;
6955;SDS011;50345;51.136;16.886;2022-07-05T03:59:39;5.17;;;4.77;;
6955;SDS011;50345;51.136;16.886;2022-07-05T04:02:04;5.30;;;4.80;;
6955;SDS011;50345;51.136;16.886;2022-07-05T04:04:30;5.40;;;4.97;;
6955;SDS011;50345;51.136;16.886;2022-07-05T04:06:56;5.30;;;4.80;;
6955;SDS011;50345;51.136;16.886;2022-07-05T04:09:21;6.43;;;5.10;;
6955;SDS011;50345;51.136;16.886;2022-07-05T04:11:47;6.57;;;4.77;;
6955;SDS011;50345;51.136;16.886;2022-07-05T04:14:13;7.10;;;5.40;;
6955;SDS011;50345;51.136;16.886;2022-07-05T04:16:38;6.87;;;6.13;;
6955;SDS011;50345;51.136;16.886;2022-07-05T04:19:04;4.97;;;4.67;;
6955;SDS011;50345;51.136;16.886;2022-07-05T04:21:29;6.53;;;5.53;;
6955;SDS011;50345;51.136;16.886;2022-07-05T04:23:55;5.50;;;5.10;;
6955;SDS011;50345;51.136;16.886;2022-07-05T04:26:21;5.60;;;4.63;;
6955;SDS011;50345;51.136;16.886;2022-07-05T04:28:46;9.20;;;5.20;;
6955;SDS011;50345;51.136;16.886;2022-07-05T04:31:12;4.73;;;4.43;;
6955;SDS011;50345;51.136;16.886;2022-07-05T04:33:37;5.20;;;4.80;;
6955;SDS011;50345;51.136;16.886;2022-07-05T04:36:03;7.00;;;6.10;;
6955;SDS011;50345;51.136;16.886;2022-07-05T04:38:29;7.00;;;6.30;;
6955;SDS011;50345;51.136;16.886;2022-07-05T04:40:55;6.40;;;5.97;;
6955;SDS011;50345;51.136;16.886;2022-07-05T04:43:20;7.50;;;6.70;;
6955;SDS011;50345;51.136;16.886;2022-07-05T04:45:46;6.07;;;5.70;;
6955;SDS011;50345;51.136;16.886;2022-07-05T04:48:11;6.83;;;6.23;;
6955;SDS011;50345;51.136;16.886;2022-07-05T04:50:37;6.77;;;6.17;;
6955;SDS011;50345;51.136;16.886;2022-07-05T04:53:03;8.10;;;7.30;;
6955;SDS011;50345;51.136;16.886;2022-07-05T04:55:28;6.93;;;6.27;;
6955;SDS011;50345;51.136;16.886;2022-07-05T04:57:54;8.43;;;7.63;;
6955;SDS011;50345;51.136;16.886;2022-07-05T05:00:20;8.53;;;6.10;;
6955;SDS011;50345;51.136;16.886;2022-07-05T05:02:45;6.93;;;6.37;;
6955;SDS011;50345;51.136;16.886;2022-07-05T05:05:11;7.33;;;5.90;;
6955;SDS011;50345;51.136;16.886;2022-07-05T05:07:37;6.83;;;6.30;;
6955;SDS011;50345;51.136;16.886;2022-07-05T05:10:07;7.03;;;6.33;;
6955;SDS011;50345;51.136;16.886;2022-07-05T05:12:33;6.00;;;5.50;;
6955;SDS011;50345;51.136;16.886;2022-07-05T05:14:58;7.03;;;6.40;;
6955;SDS011;50345;51.136;16.886;2022-07-05T05:17:24;6.10;;;5.70;;
6955;SDS011;50345;51.136;16.886;2022-07-05T05:19:50;6.80;;;6.30;;
6955;SDS011;50345;51.136;16.886;2022-07-05T05:22:16;7.20;;;5.80;;
6955;SDS011;50345;51.136;16.886;2022-07-05T05:24:41;7.07;;;6.63;;
6955;SDS011;50345;51.136;16.886;2022-07-05T05:27:07;6.87;;;6.40;;
6955;SDS011;50345;51.136;16.886;2022-07-05T05:29:32;6.67;;;6.03;;
6955;SDS011;50345;51.136;16.886;2022-07-05T05:31:58;5.90;;;5.40;;
6955;SDS011;50345;51.136;16.886;2022-07-05T05:34:24;8.47;;;5.80;;
6955;SDS011;50345;51.136;16.886;2022-07-05T05:36:50;6.50;;;5.90;;
6955;SDS011;50345;51.136;16.886;2022-07-05T05:39:15;7.60;;;7.03;;
6955;SDS011;50345;51.136;16.886;2022-07-05T05:41:41;7.37;;;6.87;;
6955;SDS011;50345;51.136;16.886;2022-07-05T05:44:06;5.90;;;5.53;;
6955;SDS011;50345;51.136;16.886;2022-07-05T05:46:32;6.50;;;6.00;;
6955;SDS011;50345;51.136;16.886;2022-07-05T05:48:58;7.17;;;6.50;;
6955;SDS011;50345;51.136;16.886;2022-07-05T05:51:23;6.20;;;5.70;;
6955;SDS011;50345;51.136;16.886;2022-07-05T05:53:49;6.53;;;6.03;;
6955;SDS011;50345;51.136;16.886;2022-07-05T05:56:15;6.47;;;5.97;;
6955;SDS011;50345;51.136;16.886;2022-07-05T05:58:41;7.13;;;6.63;;
6955;SDS011;50345;51.136;16.886;2022-07-05T06:01:06;7.30;;;6.80;;
6955;SDS011;50345;51.136;16.886;2022-07-05T06:03:32;6.93;;;6.43;;
6955;SDS011;50345;51.136;16.886;2022-07-05T06:05:57;6.60;;;6.10;;
6955;SDS011;50345;51.136;16.886;2022-07-05T06:08:23;6.13;;;5.60;;
6955;SDS011;50345;51.136;16.886;2022-07-05T06:10:49;6.63;;;6.03;;
6955;SDS011;50345;51.136;16.886;2022-07-05T06:13:15;6.77;;;5.90;;
6955;SDS011;50345;51.136;16.886;2022-07-05T06:15:41;6.40;;;5.93;;
6955;SDS011;50345;51.136;16.886;2022-07-05T06:18:08;6.07;;;5.57;;
6955;SDS011;50345;51.136;16.886;2022-07-05T06:20:35;6.43;;;6.03;;
6955;SDS011;50345;51.136;16.886;2022-07-05T06:23:02;6.90;;;6.33;;
6955;SDS011;50345;51.136;16.886;2022-07-05T06:25:29;6.77;;;6.27;;
6955;SDS011;50345;51.136;16.886;2022-07-05T06:30:25;6.73;;;6.33;;
6955;SDS011;50345;51.136;16.886;2022-07-05T06:32:53;7.77;;;7.03;;
6955;SDS011;50345;51.136;16.886;2022-07-05T06:35:20;7.70;;;6.90;;
6955;SDS011;50345;51.136;16.886;2022-07-05T06:37:50;7.00;;;6.50;;
6955;SDS011;50345;51.136;16.886;2022-07-05T06:40:18;7.40;;;6.43;;
6955;SDS011;50345;51.136;16.886;2022-07-05T06:42:52;7.57;;;6.97;;
6955;SDS011;50345;51.136;16.886;2022-07-05T06:45:19;7.87;;;7.17;;
6955;SDS011;50345;51.136;16.886;2022-07-05T06:47:53;8.63;;;7.90;;
6955;SDS011;50345;51.136;16.886;2022-07-05T06:50:19;7.90;;;6.93;;
6955;SDS011;50345;51.136;16.886;2022-07-05T06:52:45;7.97;;;7.33;;
6955;SDS011;50345;51.136;16.886;2022-07-05T06:55:10;8.10;;;7.43;;
6955;SDS011;50345;51.136;16.886;2022-07-05T06:57:36;7.77;;;7.13;;
6955;SDS011;50345;51.136;16.886;2022-07-05T07:00:02;7.60;;;6.97;;
6955;SDS011;50345;51.136;16.886;2022-07-05T07:02:28;7.20;;;6.70;;
6955;SDS011;50345;51.136;16.886;2022-07-05T07:04:54;8.57;;;7.73;;
6955;SDS011;50345;51.136;16.886;2022-07-05T07:07:19;15.60;;;14.20;;
6955;SDS011;50345;51.136;16.886;2022-07-05T07:10:03;17.30;;;14.27;;
6955;SDS011;50345;51.136;16.886;2022-07-05T07:12:29;25.20;;;22.70;;
6955;SDS011;50345;51.136;16.886;2022-07-05T07:14:56;27.10;;;24.20;;
6955;SDS011;50345;51.136;16.886;2022-07-05T07:17:22;26.70;;;24.00;;
6955;SDS011;50345;51.136;16.886;2022-07-05T07:19:48;21.30;;;19.23;;
6955;SDS011;50345;51.136;16.886;2022-07-05T07:22:14;17.70;;;16.00;;
6955;SDS011;50345;51.136;16.886;2022-07-05T07:24:40;18.60;;;16.80;;
6955;SDS011;50345;51.136;16.886;2022-07-05T07:27:05;23.40;;;21.33;;
6955;SDS011;50345;51.136;16.886;2022-07-05T07:29:36;24.93;;;19.13;;
6955;SDS011;50345;51.136;16.886;2022-07-05T07:32:03;14.27;;;12.87;;
6955;SDS011;50345;51.136;16.886;2022-07-05T07:34:31;13.67;;;12.57;;
6955;SDS011;50345;51.136;16.886;2022-07-05T07:36:57;10.80;;;10.00;;
6955;SDS011;50345;51.136;16.886;2022-07-05T07:39:24;10.50;;;9.60;;
6955;SDS011;50345;51.136;16.886;2022-07-05T07:41:51;10.77;;;9.50;;
6955;SDS011;50345;51.136;16.886;2022-07-05T07:44:18;9.60;;;8.90;;
6955;SDS011;50345;51.136;16.886;2022-07-05T07:46:44;10.53;;;9.53;;
6955;SDS011;50345;51.136;16.886;2022-07-05T07:49:10;9.37;;;8.67;;
6955;SDS011;50345;51.136;16.886;2022-07-05T07:51:39;9.47;;;8.67;;
6955;SDS011;50345;51.136;16.886;2022-07-05T07:54:05;7.20;;;6.60;;
6955;SDS011;50345;51.136;16.886;2022-07-05T07:56:30;7.07;;;6.47;;
6955;SDS011;50345;51.136;16.886;2022-07-05T07:58:56;8.50;;;7.70;;
6955;SDS011;50345;51.136;16.886;2022-07-05T08:01:22;7.80;;;7.17;;
6955;SDS011;50345;51.136;16.886;2022-07-05T08:03:47;8.87;;;8.00;;
6955;SDS011;50345;51.136;16.886;2022-07-05T08:06:13;9.40;;;8.70;;
6955;SDS011;50345;51.136;16.886;2022-07-05T08:08:40;8.17;;;7.47;;
6955;SDS011;50345;51.136;16.886;2022-07-05T08:11:07;8.87;;;7.97;;
6955;SDS011;50345;51.136;16.886;2022-07-05T08:13:34;8.40;;;7.80;;
6955;SDS011;50345;51.136;16.886;2022-07-05T08:16:00;9.07;;;8.27;;
6955;SDS011;50345;51.136;16.886;2022-07-05T08:18:26;7.90;;;7.30;;
6955;SDS011;50345;51.136;16.886;2022-07-05T08:21:10;6.20;;;4.57;;
6955;SDS011;50345;51.136;16.886;2022-07-05T08:23:55;4.00;;;3.60;;
6955;SDS011;50345;51.136;16.886;2022-07-05T08:26:21;3.60;;;3.40;;
6955;SDS011;50345;51.136;16.886;2022-07-05T08:28:47;3.30;;;3.10;;
6955;SDS011;50345;51.136;16.886;2022-07-05T08:31:13;3.57;;;3.37;;
6955;SDS011;50345;51.136;16.886;2022-07-05T08:33:38;4.10;;;3.80;;
6955;SDS011;50345;51.136;16.886;2022-07-05T08:36:04;4.00;;;3.70;;
6955;SDS011;50345;51.136;16.886;2022-07-05T08:38:30;3.13;;;2.93;;
6955;SDS011;50345;51.136;16.886;2022-07-05T08:40:56;3.50;;;3.23;;
6955;SDS011;50345;51.136;16.886;2022-07-05T08:43:23;5.23;;;3.73;;
6955;SDS011;50345;51.136;16.886;2022-07-05T08:45:52;4.73;;;3.50;;
6955;SDS011;50345;51.136;16.886;2022-07-05T08:48:19;5.63;;;3.47;;
6955;SDS011;50345;51.136;16.886;2022-07-05T08:50:45;2.90;;;2.80;;
6955;SDS011;50345;51.136;16.886;2022-07-05T08:53:18;3.93;;;3.20;;
6955;SDS011;50345;51.136;16.886;2022-07-05T08:55:44;3.80;;;3.60;;
6955;SDS011;50345;51.136;16.886;2022-07-05T08:58:10;3.53;;;3.20;;
6955;SDS011;50345;51.136;16.886;2022-07-05T09:00:36;3.50;;;3.10;;
6955;SDS011;50345;51.136;16.886;2022-07-05T09:03:04;3.73;;;3.23;;
6955;SDS011;50345;51.136;16.886;2022-07-05T09:05:31;3.80;;;3.60;;
6955;SDS011;50345;51.136;16.886;2022-07-05T09:08:09;3.27;;;3.07;;
6955;SDS011;50345;51.136;16.886;2022-07-05T09:10:38;2.90;;;2.70;;
6955;SDS011;50345;51.136;16.886;2022-07-05T09:13:07;3.10;;;2.90;;
6955;SDS011;50345;51.136;16.886;2022-07-05T09:15:32;3.10;;;2.90;;
6955;SDS011;50345;51.136;16.886;2022-07-05T09:17:58;3.73;;;2.43;;
6955;SDS011;50345;51.136;16.886;2022-07-05T09:20:24;4.37;;;3.03;;
6955;SDS011;50345;51.136;16.886;2022-07-05T09:22:55;2.70;;;2.60;;
6955;SDS011;50345;51.136;16.886;2022-07-05T09:25:25;3.17;;;2.90;;
6955;SDS011;50345;51.136;16.886;2022-07-05T09:27:57;5.40;;;2.57;;
6955;SDS011;50345;51.136;16.886;2022-07-05T09:30:33;3.33;;;3.00;;
6955;SDS011;50345;51.136;16.886;2022-07-05T09:33:04;3.57;;;3.27;;
6955;SDS011;50345;51.136;16.886;2022-07-05T09:35:30;3.27;;;2.97;;
6955;SDS011;50345;51.136;16.886;2022-07-05T09:37:59;3.23;;;3.03;;
6955;SDS011;50345;51.136;16.886;2022-07-05T09:40:28;4.27;;;3.43;;
6955;SDS011;50345;51.136;16.886;2022-07-05T09:45:57;3.93;;;3.50;;
6955;SDS011;50345;51.136;16.886;2022-07-05T09:48:24;3.60;;;3.40;;
6955;SDS011;50345;51.136;16.886;2022-07-05T09:50:51;3.20;;;3.00;;
6955;SDS011;50345;51.136;16.886;2022-07-05T09:53:17;3.17;;;2.97;;
6955;SDS011;50345;51.136;16.886;2022-07-05T09:55:59;4.03;;;3.73;;
6955;SDS011;50345;51.136;16.886;2022-07-05T09:58:28;3.93;;;3.73;;
6955;SDS011;50345;51.136;16.886;2022-07-05T10:00:54;3.67;;;3.47;;
6955;SDS011;50345;51.136;16.886;2022-07-05T10:03:20;3.70;;;3.50;;
6955;SDS011;50345;51.136;16.886;2022-07-05T10:05:45;3.63;;;3.40;;
6955;SDS011;50345;51.136;16.886;2022-07-05T10:08:11;3.10;;;2.80;;
6955;SDS011;50345;51.136;16.886;2022-07-05T10:10:38;3.00;;;2.80;;
6955;SDS011;50345;51.136;16.886;2022-07-05T10:13:06;3.77;;;3.47;;
6955;SDS011;50345;51.136;16.886;2022-07-05T10:15:32;3.50;;;3.20;;
6955;SDS011;50345;51.136;16.886;2022-07-05T10:18:00;3.27;;;3.07;;
6955;SDS011;50345;51.136;16.886;2022-07-05T10:20:29;3.30;;;3.00;;
6955;SDS011;50345;51.136;16.886;2022-07-05T10:22:58;3.13;;;2.93;;
6955;SDS011;50345;51.136;16.886;2022-07-05T10:25:26;3.37;;;3.17;;
6955;SDS011;50345;51.136;16.886;2022-07-05T10:27:53;3.80;;;3.50;;
6955;SDS011;50345;51.136;16.886;2022-07-05T10:30:20;5.73;;;3.13;;
6955;SDS011;50345;51.136;16.886;2022-07-05T10:32:47;4.73;;;2.93;;
6955;SDS011;50345;51.136;16.886;2022-07-05T10:35:14;3.63;;;3.33;;
6955;SDS011;50345;51.136;16.886;2022-07-05T10:37:42;4.00;;;3.60;;
6955;SDS011;50345;51.136;16.886;2022-07-05T10:40:08;3.93;;;3.73;;
6955;SDS011;50345;51.136;16.886;2022-07-05T10:45:31;4.53;;;4.23;;
6955;SDS011;50345;51.136;16.886;2022-07-05T10:50:51;4.27;;;3.97;;
6955;SDS011;50345;51.136;16.886;2022-07-05T10:53:27;4.80;;;4.47;;
6955;SDS011;50345;51.136;16.886;2022-07-05T10:56:00;4.60;;;4.20;;
6955;SDS011;50345;51.136;16.886;2022-07-05T10:58:43;4.87;;;4.50;;
6955;SDS011;50345;51.136;16.886;2022-07-05T11:11:25;4.83;;;4.53;;
6955;SDS011;50345;51.136;16.886;2022-07-05T11:13:54;5.50;;;5.10;;
6955;SDS011;50345;51.136;16.886;2022-07-05T11:16:38;5.33;;;4.93;;
6955;SDS011;50345;51.136;16.886;2022-07-05T11:19:05;6.70;;;5.03;;
6955;SDS011;50345;51.136;16.886;2022-07-05T11:21:31;5.40;;;5.00;;
6955;SDS011;50345;51.136;16.886;2022-07-05T11:26:50;4.33;;;4.03;;
6955;SDS011;50345;51.136;16.886;2022-07-05T11:32:10;4.53;;;4.20;;
6955;SDS011;50345;51.136;16.886;2022-07-05T11:34:44;4.43;;;4.03;;
6955;SDS011;50345;51.136;16.886;2022-07-05T11:39:44;3.90;;;3.60;;
6955;SDS011;50345;51.136;16.886;2022-07-05T11:42:20;4.00;;;3.70;;
6955;SDS011;50345;51.136;16.886;2022-07-05T11:44:49;4.23;;;3.93;;
6955;SDS011;50345;51.136;16.886;2022-07-05T11:47:18;5.93;;;3.70;;
6955;SDS011;50345;51.136;16.886;2022-07-05T11:49:57;4.10;;;3.50;;
6955;SDS011;50345;51.136;16.886;2022-07-05T11:52:27;3.50;;;3.20;;
6955;SDS011;50345;51.136;16.886;2022-07-05T11:54:54;3.10;;;2.90;;
6955;SDS011;50345;51.136;16.886;2022-07-05T11:57:21;3.30;;;3.00;;
6955;SDS011;50345;51.136;16.886;2022-07-05T11:59:48;4.87;;;3.20;;
6955;SDS011;50345;51.136;16.886;2022-07-05T12:02:14;3.93;;;3.60;;
6955;SDS011;50345;51.136;16.886;2022-07-05T12:04:39;3.30;;;3.10;;
6955;SDS011;50345;51.136;16.886;2022-07-05T12:07:05;3.17;;;2.60;;
6955;SDS011;50345;51.136;16.886;2022-07-05T12:09:32;3.07;;;2.87;;
6955;SDS011;50345;51.136;16.886;2022-07-05T12:12:26;3.37;;;3.07;;
6955;SDS011;50345;51.136;16.886;2022-07-05T12:15:17;4.60;;;2.70;;
6955;SDS011;50345;51.136;16.886;2022-07-05T12:17:48;2.37;;;2.17;;
6955;SDS011;50345;51.136;16.886;2022-07-05T12:20:15;2.90;;;2.70;;
6955;SDS011;50345;51.136;16.886;2022-07-05T12:22:45;2.60;;;2.40;;
6955;SDS011;50345;51.136;16.886;2022-07-05T12:25:12;3.00;;;2.80;;
6955;SDS011;50345;51.136;16.886;2022-07-05T12:27:40;3.50;;;2.50;;
6955;SDS011;50345;51.136;16.886;2022-07-05T12:30:07;2.83;;;2.63;;
6955;SDS011;50345;51.136;16.886;2022-07-05T12:32:35;3.37;;;2.50;;
6955;SDS011;50345;51.136;16.886;2022-07-05T12:38:09;2.63;;;2.53;;
6955;SDS011;50345;51.136;16.886;2022-07-05T12:40:36;2.83;;;2.63;;
6955;SDS011;50345;51.136;16.886;2022-07-05T12:43:04;2.63;;;2.43;;
6955;SDS011;50345;51.136;16.886;2022-07-05T12:45:31;2.83;;;2.33;;
6955;SDS011;50345;51.136;16.886;2022-07-05T12:47:57;2.90;;;2.43;;
6955;SDS011;50345;51.136;16.886;2022-07-05T12:50:25;2.53;;;1.93;;
6955;SDS011;50345;51.136;16.886;2022-07-05T12:55:20;2.57;;;2.37;;
6955;SDS011;50345;51.136;16.886;2022-07-05T12:58:05;2.37;;;1.80;;
6955;SDS011;50345;51.136;16.886;2022-07-05T13:00:31;3.93;;;2.23;;
6955;SDS011;50345;51.136;16.886;2022-07-05T13:02:57;2.13;;;1.93;;
6955;SDS011;50345;51.136;16.886;2022-07-05T13:05:24;2.03;;;1.93;;
6955;SDS011;50345;51.136;16.886;2022-07-05T13:07:51;3.83;;;2.00;;
6955;SDS011;50345;51.136;16.886;2022-07-05T13:10:21;2.37;;;2.17;;
6955;SDS011;50345;51.136;16.886;2022-07-05T13:12:47;2.60;;;2.07;;
6955;SDS011;50345;51.136;16.886;2022-07-05T13:15:13;2.70;;;1.70;;
6955;SDS011;50345;51.136;16.886;2022-07-05T13:17:40;1.97;;;1.87;;
6955;SDS011;50345;51.136;16.886;2022-07-05T13:20:06;2.10;;;1.80;;
6955;SDS011;50345;51.136;16.886;2022-07-05T13:22:33;2.00;;;1.80;;
6955;SDS011;50345;51.136;16.886;2022-07-05T13:24:59;1.93;;;1.83;;
6955;SDS011;50345;51.136;16.886;2022-07-05T13:27:25;3.10;;;1.73;;
6955;SDS011;50345;51.136;16.886;2022-07-05T13:29:51;2.00;;;1.70;;
6955;SDS011;50345;51.136;16.886;2022-07-05T13:32:17;2.23;;;1.77;;
6955;SDS011;50345;51.136;16.886;2022-07-05T13:34:46;1.97;;;1.77;;
6955;SDS011;50345;51.136;16.886;2022-07-05T13:37:13;2.03;;;1.93;;
6955;SDS011;50345;51.136;16.886;2022-07-05T13:39:39;3.30;;;2.10;;
6955;SDS011;50345;51.136;16.886;2022-07-05T13:42:05;3.17;;;1.50;;
6955;SDS011;50345;51.136;16.886;2022-07-05T13:44:32;3.60;;;2.07;;
6955;SDS011;50345;51.136;16.886;2022-07-05T13:46:58;2.00;;;1.90;;
6955;SDS011;50345;51.136;16.886;2022-07-05T13:49:24;1.70;;;1.60;;
6955;SDS011;50345;51.136;16.886;2022-07-05T13:51:50;1.97;;;1.77;;
6955;SDS011;50345;51.136;16.886;2022-07-05T13:54:16;1.70;;;1.60;;
6955;SDS011;50345;51.136;16.886;2022-07-05T13:56:43;2.40;;;2.20;;
6955;SDS011;50345;51.136;16.886;2022-07-05T13:59:09;2.10;;;2.00;;
6955;SDS011;50345;51.136;16.886;2022-07-05T14:01:35;2.13;;;1.87;;
6955;SDS011;50345;51.136;16.886;2022-07-05T14:04:01;1.83;;;1.73;;
6955;SDS011;50345;51.136;16.886;2022-07-05T14:06:28;1.90;;;1.80;;
6955;SDS011;50345;51.136;16.886;2022-07-05T14:08:54;3.83;;;1.90;;
6955;SDS011;50345;51.136;16.886;2022-07-05T14:11:20;2.33;;;1.97;;
6955;SDS011;50345;51.136;16.886;2022-07-05T14:13:46;1.90;;;1.80;;
6955;SDS011;50345;51.136;16.886;2022-07-05T14:16:12;1.70;;;1.60;;
6955;SDS011;50345;51.136;16.886;2022-07-05T14:18:38;5.53;;;1.87;;
6955;SDS011;50345;51.136;16.886;2022-07-05T14:21:05;2.37;;;2.17;;
6955;SDS011;50345;51.136;16.886;2022-07-05T14:23:31;1.93;;;1.47;;
6955;SDS011;50345;51.136;16.886;2022-07-05T14:25:57;2.27;;;2.07;;
6955;SDS011;50345;51.136;16.886;2022-07-05T14:28:24;3.03;;;2.10;;
6955;SDS011;50345;51.136;16.886;2022-07-05T14:30:50;2.80;;;2.27;;
6955;SDS011;50345;51.136;16.886;2022-07-05T14:33:16;2.30;;;2.10;;
6955;SDS011;50345;51.136;16.886;2022-07-05T14:35:42;1.60;;;1.50;;
6955;SDS011;50345;51.136;16.886;2022-07-05T14:38:08;2.80;;;1.80;;
6955;SDS011;50345;51.136;16.886;2022-07-05T14:40:35;2.70;;;2.17;;
6955;SDS011;50345;51.136;16.886;2022-07-05T14:43:01;2.37;;;2.17;;
6955;SDS011;50345;51.136;16.886;2022-07-05T14:45:27;2.00;;;1.90;;
6955;SDS011;50345;51.136;16.886;2022-07-05T14:47:53;2.30;;;2.10;;
6955;SDS011;50345;51.136;16.886;2022-07-05T14:50:19;2.20;;;2.07;;
6955;SDS011;50345;51.136;16.886;2022-07-05T14:52:46;2.73;;;2.53;;
6955;SDS011;50345;51.136;16.886;2022-07-05T14:55:12;1.73;;;1.63;;
6955;SDS011;50345;51.136;16.886;2022-07-05T14:57:39;2.23;;;1.97;;
6955;SDS011;50345;51.136;16.886;2022-07-05T15:00:06;2.33;;;1.83;;
6955;SDS011;50345;51.136;16.886;2022-07-05T15:02:32;1.67;;;1.57;;
6955;SDS011;50345;51.136;16.886;2022-07-05T15:04:58;3.07;;;1.90;;
6955;SDS011;50345;51.136;16.886;2022-07-05T15:07:24;1.87;;;1.73;;
6955;SDS011;50345;51.136;16.886;2022-07-05T15:09:50;3.37;;;2.00;;
6955;SDS011;50345;51.136;16.886;2022-07-05T15:12:16;2.43;;;2.10;;
6955;SDS011;50345;51.136;16.886;2022-07-05T15:14:43;4.77;;;2.83;;
6955;SDS011;50345;51.136;16.886;2022-07-05T15:17:09;2.27;;;2.07;;
6955;SDS011;50345;51.136;16.886;2022-07-05T15:19:35;2.33;;;2.20;;
6955;SDS011;50345;51.136;16.886;2022-07-05T15:22:01;1.93;;;1.67;;